Time;durP1;ratioP1;P1;durP2;ratioP2;P2;SDS_P1;SDS_P2;PMS_P1;PMS_P2;Temp;Humidity;BMP_temperature;BMP_pressure;BME280_temperature;BME280_humidity;BME280_pressure;Samples;Min_cycle;Max_cycle;Signal;HPM_P1;HPM_P2
2021/12/28 00:00:44;;;;;;;119.60;39.67;;;;;;;;;;4986518;28;20812;-66
2021/12/28 00:03:10;;;;;;;110.85;40.00;;;;;;;;;;4984959;28;20091;-66
2021/12/28 00:05:36;;;;;;;118.13;40.03;;;;;;;;;;4987544;28;20477;-66
2021/12/28 00:08:02;;;;;;;112.03;40.15;;;;;;;;;;4988499;28;20044;-66
2021/12/28 00:10:28;;;;;;;111.90;39.42;;;;;;;;;;4984107;28;20856;-66
2021/12/28 00:12:55;;;;;;;109.30;39.72;;;;;;;;;;4985956;28;20074;-66
2021/12/28 00:17:59;;;;;;;114.32;39.78;;;-3.20;99.90;;;;;;4990497;28;20034;-66
2021/12/28 00:20:25;;;;;;;109.22;40.38;;;;;;;;;;4986134;28;20042;-66
2021/12/28 00:22:50;;;;;;;114.97;40.53;;;-2.60;99.90;;;;;;4991907;28;20037;-66
2021/12/28 00:25:16;;;;;;;112.00;39.78;;;;;;;;;;4966237;28;20030;-66
2021/12/28 00:27:43;;;;;;;115.00;41.08;;;;;;;;;;4989304;28;20037;-66
2021/12/28 00:30:09;;;;;;;125.63;40.95;;;;;;;;;;4971783;28;20034;-66
2021/12/28 00:32:34;;;;;;;115.10;40.30;;;-3.40;99.90;;;;;;4988492;28;20478;-66
2021/12/28 00:35:00;;;;;;;126.90;39.95;;;;;;;;;;4982819;28;20495;-66
2021/12/28 00:37:26;;;;;;;117.85;41.97;;;;;;;;;;4990503;28;20038;-66
2021/12/28 00:39:52;;;;;;;120.18;42.25;;;;;;;;;;4990993;28;20135;-66
2021/12/28 00:42:18;;;;;;;112.40;41.50;;;;;;;;;;4995767;28;20112;-66
2021/12/28 00:44:44;;;;;;;115.65;41.70;;;;;;;;;;4983791;28;20587;-66
2021/12/28 00:47:10;;;;;;;118.18;41.75;;;;;;;;;;4984610;28;20030;-66
2021/12/28 00:49:36;;;;;;;130.57;43.33;;;;;;;;;;4986587;28;20537;-66
2021/12/28 00:52:02;;;;;;;120.75;41.47;;;;;;;;;;4988855;28;20073;-66
2021/12/28 00:54:28;;;;;;;120.55;44.20;;;;;;;;;;4990540;28;20025;-66
2021/12/28 00:56:54;;;;;;;113.28;41.42;;;;;;;;;;4992400;28;20499;-66
2021/12/28 00:59:20;;;;;;;115.68;42.05;;;;;;;;;;4987275;28;20041;-66
2021/12/28 01:01:47;;;;;;;127.70;43.00;;;;;;;;;;4991576;28;20128;-66
2021/12/28 01:04:13;;;;;;;123.57;42.25;;;-3.30;99.90;;;;;;4989257;28;20922;-65
2021/12/28 01:06:39;;;;;;;124.47;43.40;;;;;;;;;;4993498;28;20034;-66
2021/12/28 01:09:05;;;;;;;117.00;40.17;;;;;;;;;;4983302;28;20085;-65
2021/12/28 01:11:31;;;;;;;132.88;44.45;;;;;;;;;;4989686;28;20030;-66
2021/12/28 01:13:57;;;;;;;122.70;44.55;;;;;;;;;;4985790;28;20031;-66
2021/12/28 01:16:23;;;;;;;121.28;43.85;;;;;;;;;;4986257;28;20077;-66
2021/12/28 01:18:49;;;;;;;123.75;43.95;;;;;;;;;;4983471;28;20120;-66
2021/12/28 01:21:15;;;;;;;122.88;43.58;;;;;;;;;;4990371;28;20038;-66
2021/12/28 01:23:41;;;;;;;129.07;44.72;;;;;;;;;;4992236;28;20042;-66
2021/12/28 01:26:07;;;;;;;118.18;42.95;;;;;;;;;;4991410;28;20041;-66
2021/12/28 01:28:33;;;;;;;113.00;40.95;;;;;;;;;;4984657;28;20026;-66
2021/12/28 01:30:59;;;;;;;125.22;44.17;;;;;;;;;;4987759;28;20561;-66
2021/12/28 01:33:25;;;;;;;120.22;44.22;;;;;;;;;;4984478;28;20034;-66
2021/12/28 01:35:51;;;;;;;125.45;42.72;;;;;;;;;;4988823;28;20041;-66
2021/12/28 01:38:17;;;;;;;123.03;43.13;;;;;;;;;;4985510;28;20034;-66
2021/12/28 01:40:43;;;;;;;125.97;43.20;;;;;;;;;;4991861;28;20980;-66
2021/12/28 01:43:11;;;;;;;122.88;44.17;;;;;;;;;;4993482;28;20889;-66
2021/12/28 01:45:37;;;;;;;132.35;45.83;;;;;;;;;;4996180;28;20033;-66
2021/12/28 01:48:03;;;;;;;129.05;44.50;;;;;;;;;;4984243;28;20027;-66
2021/12/28 01:50:29;;;;;;;123.72;45.38;;;;;;;;;;4985229;28;20026;-66
2021/12/28 01:52:55;;;;;;;125.65;43.30;;;;;;;;;;4985579;28;20049;-66
2021/12/28 01:55:21;;;;;;;124.50;43.65;;;;;;;;;;4987631;28;20038;-66
2021/12/28 01:57:47;;;;;;;128.75;44.13;;;;;;;;;;4974026;28;20073;-66
2021/12/28 02:00:13;;;;;;;130.00;46.03;;;;;;;;;;5004358;28;20033;-66
2021/12/28 02:02:39;;;;;;;119.50;44.10;;;;;;;;;;4992182;28;20042;-66
2021/12/28 02:05:05;;;;;;;128.90;45.17;;;;;;;;;;4989425;28;20030;-66
2021/12/28 02:07:31;;;;;;;123.25;42.95;;;;;;;;;;4983113;28;20549;-66
2021/12/28 02:09:57;;;;;;;135.95;45.53;;;;;;;;;;4983689;28;20053;-66
2021/12/28 02:12:23;;;;;;;126.75;45.25;;;;;;;;;;4985554;28;20041;-66
2021/12/28 02:14:49;;;;;;;130.05;43.42;;;;;;;;;;4986913;28;20551;-66
2021/12/28 02:17:14;;;;;;;133.77;45.67;;;-3.20;99.90;;;;;;4986542;28;20038;-66
2021/12/28 02:19:40;;;;;;;126.13;44.17;;;-3.20;99.90;;;;;;4993514;28;20038;-66
2021/12/28 02:22:07;;;;;;;137.27;45.42;;;;;;;;;;4983948;28;20129;-66
2021/12/28 02:24:33;;;;;;;123.85;45.78;;;;;;;;;;4988502;28;20045;-66
2021/12/28 02:26:59;;;;;;;130.38;46.17;;;;;;;;;;4986526;28;20034;-66
2021/12/28 02:29:25;;;;;;;124.50;45.97;;;;;;;;;;4985122;28;20152;-66
2021/12/28 02:31:55;;;;;;;127.65;44.67;;;;;;;;;;4986244;28;20096;-66
2021/12/28 02:34:23;;;;;;;124.00;45.55;;;;;;;;;;4985205;28;20050;-66
2021/12/28 02:36:49;;;;;;;125.78;45.47;;;;;;;;;;4987043;28;20546;-66
2021/12/28 02:39:15;;;;;;;133.60;46.28;;;-3.60;99.90;;;;;;4989933;28;20030;-66
2021/12/28 02:41:40;;;;;;;135.80;46.50;;;-3.50;99.90;;;;;;4989916;28;20065;-66
2021/12/28 02:44:06;;;;;;;131.15;45.80;;;;;;;;;;4988287;28;20096;-66
2021/12/28 02:46:32;;;;;;;132.00;45.42;;;;;;;;;;4989068;28;20439;-66
2021/12/28 02:48:58;;;;;;;123.38;44.38;;;;;;;;;;4988200;28;20087;-66
2021/12/28 02:51:24;;;;;;;127.22;45.95;;;;;;;;;;4984718;28;20581;-66
2021/12/28 02:53:50;;;;;;;124.35;44.65;;;;;;;;;;4985068;28;20030;-66
2021/12/28 02:56:16;;;;;;;123.32;45.40;;;;;;;;;;4985924;28;20041;-66
2021/12/28 02:58:42;;;;;;;118.75;44.00;;;;;;;;;;4989617;28;20148;-66
2021/12/28 03:01:09;;;;;;;137.70;46.63;;;;;;;;;;4988420;28;20042;-66
2021/12/28 03:03:35;;;;;;;127.72;45.17;;;;;;;;;;4991505;28;20040;-66
2021/12/28 03:06:01;;;;;;;137.95;49.05;;;;;;;;;;4985444;28;20038;-66
2021/12/28 03:08:26;;;;;;;126.53;45.28;;;;;;;;;;4983225;28;20046;-66
2021/12/28 03:10:53;;;;;;;130.07;45.50;;;;;;;;;;4983705;28;20883;-67
2021/12/28 03:13:19;;;;;;;129.27;45.55;;;;;;;;;;4987397;28;20056;-66
2021/12/28 03:15:45;;;;;;;126.05;45.53;;;;;;;;;;4989439;28;20042;-66
2021/12/28 03:18:11;;;;;;;128.45;42.63;;;;;;;;;;4985122;28;20085;-66
2021/12/28 03:20:37;;;;;;;127.40;45.33;;;;;;;;;;4985913;28;20038;-66
2021/12/28 03:23:03;;;;;;;122.43;44.05;;;;;;;;;;4989514;28;20044;-66
2021/12/28 03:25:29;;;;;;;128.05;45.28;;;;;;;;;;4987973;28;20950;-66
2021/12/28 03:27:55;;;;;;;122.10;43.85;;;;;;;;;;4982577;28;20383;-66
2021/12/28 03:30:20;;;;;;;129.45;46.10;;;-3.10;99.90;;;;;;4985650;28;20066;-66
2021/12/28 03:32:46;;;;;;;128.60;44.63;;;;;;;;;;4985593;28;20038;-66
2021/12/28 03:35:12;;;;;;;123.75;42.97;;;;;;;;;;4984709;28;20034;-66
2021/12/28 03:37:38;;;;;;;126.40;44.08;;;;;;;;;;4989064;28;20771;-66
2021/12/28 03:40:04;;;;;;;128.85;42.45;;;;;;;;;;4987081;28;20042;-66
2021/12/28 03:42:30;;;;;;;121.88;43.58;;;;;;;;;;4987031;28;20036;-66
2021/12/28 03:44:56;;;;;;;126.70;43.55;;;;;;;;;;4980458;28;20045;-66
2021/12/28 03:47:22;;;;;;;124.55;42.72;;;;;;;;;;4984381;28;20953;-66
2021/12/28 03:49:48;;;;;;;127.63;45.20;;;;;;;;;;4982923;28;20043;-66
2021/12/28 03:52:14;;;;;;;135.52;47.20;;;;;;;;;;4982742;28;20046;-66
2021/12/28 03:54:40;;;;;;;118.78;42.50;;;;;;;;;;4965031;28;20030;-66
2021/12/28 03:57:06;;;;;;;118.65;43.45;;;;;;;;;;4985720;28;20052;-66
2021/12/28 03:59:32;;;;;;;121.55;43.75;;;;;;;;;;4991954;28;20033;-66
2021/12/28 04:01:58;;;;;;;124.47;42.63;;;;;;;;;;4993609;28;20037;-66
2021/12/28 04:04:24;;;;;;;127.93;42.60;;;;;;;;;;4983319;28;20118;-66
2021/12/28 04:06:49;;;;;;;117.57;42.08;;;-2.80;99.90;;;;;;4981527;28;20038;-66
2021/12/28 04:09:21;;;;;;;118.72;43.75;;;-2.80;99.90;;;;;;4981744;28;20040;-66
2021/12/28 04:11:47;;;;;;;119.90;42.13;;;;;;;;;;4984141;28;20061;-66
2021/12/28 04:14:13;;;;;;;116.50;43.38;;;;;;;;;;4984862;28;20125;-66
2021/12/28 04:16:39;;;;;;;133.27;45.47;;;;;;;;;;4986072;28;20030;-66
2021/12/28 04:19:05;;;;;;;119.65;42.22;;;;;;;;;;4985694;28;20379;-64
2021/12/28 04:21:31;;;;;;;124.03;44.35;;;;;;;;;;4980820;28;20054;-65
2021/12/28 04:23:57;;;;;;;124.50;43.72;;;;;;;;;;4987202;28;20141;-65
2021/12/28 04:26:23;;;;;;;120.45;43.15;;;;;;;;;;4968515;28;20034;-65
2021/12/28 04:28:49;;;;;;;122.85;44.05;;;;;;;;;;4981918;28;20041;-69
2021/12/28 04:31:14;;;;;;;124.28;42.03;;;;;;;;;;4979196;28;20038;-69
2021/12/28 04:33:41;;;;;;;128.27;44.10;;;;;;;;;;4982052;28;20511;-68
2021/12/28 04:36:07;;;;;;;125.65;43.17;;;;;;;;;;4985404;28;20062;-69
2021/12/28 04:38:32;;;;;;;128.82;44.75;;;;;;;;;;5003511;28;20112;-69
2021/12/28 04:40:58;;;;;;;134.07;43.20;;;;;;;;;;4985856;28;20066;-69
2021/12/28 04:43:24;;;;;;;121.63;42.92;;;;;;;;;;4983717;28;20069;-69
2021/12/28 04:45:50;;;;;;;127.97;44.65;;;;;;;;;;4984966;28;20086;-69
2021/12/28 04:48:16;;;;;;;118.00;42.88;;;-2.50;99.90;;;;;;4986894;28;20432;-69
2021/12/28 04:50:44;;;;;;;132.20;46.40;;;;;;;;;;4983670;28;20046;-69
2021/12/28 04:53:11;;;;;;;117.55;41.97;;;;;;;;;;4985731;28;20038;-69
2021/12/28 04:55:37;;;;;;;115.85;42.38;;;;;;;;;;4996695;28;20033;-69
2021/12/28 04:58:03;;;;;;;133.63;43.47;;;;;;;;;;5001991;28;20880;-69
2021/12/28 05:00:29;;;;;;;129.10;44.28;;;;;;;;;;4988074;28;20042;-69
2021/12/28 05:02:56;;;;;;;125.35;44.53;;;;;;;;;;4991602;28;20034;-70
2021/12/28 05:05:22;;;;;;;122.45;41.38;;;;;;;;;;4984645;28;20037;-66
2021/12/28 05:07:48;;;;;;;123.28;43.78;;;;;;;;;;4987119;28;20033;-65
2021/12/28 05:10:14;;;;;;;115.90;41.60;;;;;;;;;;4985604;28;20174;-65
2021/12/28 05:12:40;;;;;;;129.13;44.97;;;;;;;;;;4986499;28;20134;-65
2021/12/28 05:15:06;;;;;;;127.60;43.53;;;;;;;;;;4989209;28;20129;-65
2021/12/28 05:17:32;;;;;;;131.68;44.10;;;;;;;;;;4988706;28;20033;-65
2021/12/28 05:19:58;;;;;;;128.50;43.35;;;;;;;;;;4991069;28;20084;-65
2021/12/28 05:22:24;;;;;;;119.03;41.97;;;;;;;;;;4986936;28;20453;-65
2021/12/28 05:24:50;;;;;;;122.80;44.08;;;;;;;;;;4984770;28;20052;-65
2021/12/28 05:27:16;;;;;;;119.90;43.53;;;;;;;;;;4987844;28;20038;-65
2021/12/28 05:29:42;;;;;;;132.95;43.80;;;;;;;;;;4985228;28;20042;-65
2021/12/28 05:32:08;;;;;;;121.80;43.67;;;;;;;;;;4987703;28;20038;-65
2021/12/28 05:34:34;;;;;;;126.28;43.08;;;;;;;;;;4990285;28;20040;-65
2021/12/28 05:37:00;;;;;;;121.93;44.00;;;;;;;;;;4990181;28;20398;-65
2021/12/28 05:39:26;;;;;;;122.07;43.72;;;;;;;;;;4987143;28;20477;-65
2021/12/28 05:41:52;;;;;;;121.93;42.75;;;;;;;;;;4996211;28;20159;-65
2021/12/28 05:44:18;;;;;;;130.82;43.80;;;;;;;;;;4982638;28;20117;-65
2021/12/28 05:46:44;;;;;;;123.82;43.90;;;;;;;;;;4985813;28;20246;-65
2021/12/28 05:49:09;;;;;;;119.97;44.78;;;;;;;;;;4989502;28;20070;-65
2021/12/28 05:51:36;;;;;;;129.10;43.40;;;;;;;;;;4990647;28;20165;-65
2021/12/28 05:54:01;;;;;;;129.45;44.92;;;-2.30;99.90;;;;;;4985554;28;20494;-65
2021/12/28 05:56:27;;;;;;;118.85;43.40;;;;;;;;;;4990841;28;20030;-65
2021/12/28 05:58:53;;;;;;;117.65;43.10;;;;;;;;;;4992079;28;20033;-65
2021/12/28 06:01:19;;;;;;;120.72;43.88;;;;;;;;;;4991310;28;20038;-65
2021/12/28 06:03:45;;;;;;;123.97;43.13;;;-2.10;99.90;;;;;;4984886;28;20030;-65
2021/12/28 06:06:10;;;;;;;121.20;43.95;;;;;;;;;;4982942;28;20031;-65
2021/12/28 06:08:36;;;;;;;131.45;44.58;;;;;;;;;;4987385;28;20221;-65
2021/12/28 06:11:05;;;;;;;119.70;43.05;;;;;;;;;;4987092;28;20477;-65
2021/12/28 06:13:31;;;;;;;119.90;43.20;;;-2.40;99.90;;;;;;4988899;28;20037;-65
2021/12/28 06:15:57;;;;;;;123.32;44.13;;;;;;;;;;4989210;28;20034;-65
2021/12/28 06:18:23;;;;;;;114.18;40.63;;;;;;;;;;4988000;28;20038;-64
2021/12/28 06:20:49;;;;;;;119.47;42.60;;;;;;;;;;4985517;28;20038;-65
2021/12/28 06:23:16;;;;;;;118.00;42.88;;;;;;;;;;4982688;28;20495;-65
2021/12/28 06:25:42;;;;;;;117.47;41.67;;;;;;;;;;4982907;28;20038;-65
2021/12/28 06:28:08;;;;;;;126.22;42.83;;;;;;;;;;4986345;28;20414;-65
2021/12/28 06:30:34;;;;;;;122.85;43.05;;;;;;;;;;5000997;28;20031;-65
2021/12/28 06:33:00;;;;;;;117.32;41.38;;;;;;;;;;4987730;28;20038;-65
2021/12/28 06:35:26;;;;;;;115.47;41.70;;;;;;;;;;4978227;28;20494;-65
2021/12/28 06:37:52;;;;;;;124.57;43.25;;;;;;;;;;4993648;28;20041;-65
2021/12/28 06:40:17;;;;;;;133.07;43.08;;;;;;;;;;4990268;28;20026;-65
2021/12/28 06:42:43;;;;;;;116.30;42.95;;;;;;;;;;4982861;28;20030;-65
2021/12/28 06:45:09;;;;;;;120.47;44.08;;;;;;;;;;4983566;28;20089;-65
2021/12/28 06:47:35;;;;;;;120.53;42.97;;;;;;;;;;4983443;28;20909;-65
2021/12/28 06:50:01;;;;;;;119.63;42.63;;;;;;;;;;4987286;28;20120;-65
2021/12/28 06:52:27;;;;;;;127.20;42.15;;;;;;;;;;4987095;28;20129;-65
2021/12/28 06:54:53;;;;;;;120.70;43.00;;;;;;;;;;4990648;28;20073;-65
2021/12/28 06:57:21;;;;;;;115.13;42.78;;;;;;;;;;4989412;28;20130;-65
2021/12/28 06:59:47;;;;;;;117.60;41.55;;;;;;;;;;4992032;28;20031;-65
2021/12/28 07:02:13;;;;;;;116.10;41.05;;;;;;;;;;4979870;28;20033;-65
2021/12/28 07:04:39;;;;;;;123.53;42.20;;;;;;;;;;4982205;28;20030;-65
2021/12/28 07:07:05;;;;;;;117.75;44.88;;;;;;;;;;4982857;28;20035;-65
2021/12/28 07:09:30;;;;;;;112.15;40.97;;;-2.20;99.90;;;;;;4982097;28;20038;-65
2021/12/28 07:11:56;;;;;;;119.25;42.40;;;;;;;;;;4986152;28;20030;-65
2021/12/28 07:14:22;;;;;;;122.30;42.45;;;;;;;;;;4985639;28;20975;-65
2021/12/28 07:16:48;;;;;;;121.00;41.33;;;;;;;;;;4980186;28;20030;-65
2021/12/28 07:19:14;;;;;;;117.78;42.47;;;;;;;;;;4991966;28;20129;-65
2021/12/28 07:21:40;;;;;;;122.00;41.60;;;;;;;;;;4981051;28;20026;-67
2021/12/28 07:24:06;;;;;;;115.00;41.25;;;;;;;;;;4980989;28;20049;-66
2021/12/28 07:26:32;;;;;;;115.82;40.95;;;;;;;;;;4979347;28;20038;-67
2021/12/28 07:28:58;;;;;;;122.65;43.08;;;;;;;;;;4984591;28;20039;-66
2021/12/28 07:31:24;;;;;;;121.40;42.53;;;;;;;;;;4962941;28;20046;-66
2021/12/28 07:33:50;;;;;;;115.45;40.58;;;;;;;;;;4983648;28;20040;-66
2021/12/28 07:36:17;;;;;;;112.05;41.63;;;;;;;;;;4993020;28;20038;-67
2021/12/28 07:38:43;;;;;;;114.45;40.72;;;;;;;;;;4985693;28;20050;-66
2021/12/28 07:41:09;;;;;;;116.43;42.28;;;;;;;;;;4976760;28;20109;-66
2021/12/28 07:43:35;;;;;;;123.65;43.10;;;;;;;;;;4979275;28;20072;-69
2021/12/28 07:46:01;;;;;;;109.90;39.95;;;;;;;;;;4981419;28;20034;-74
2021/12/28 07:48:27;;;;;;;111.07;40.58;;;;;;;;;;4989386;28;20710;-67
2021/12/28 07:50:53;;;;;;;112.13;40.83;;;;;;;;;;4963572;28;20420;-68
2021/12/28 07:53:19;;;;;;;119.80;42.28;;;-2.00;99.90;;;;;;4962877;28;20026;-68
2021/12/28 07:55:45;;;;;;;120.47;42.03;;;;;;;;;;4985152;28;20066;-70
2021/12/28 07:58:11;;;;;;;119.65;41.80;;;;;;;;;;4980946;28;20042;-68
2021/12/28 08:00:37;;;;;;;114.88;41.65;;;;;;;;;;4981514;28;20038;-67
2021/12/28 08:03:04;;;;;;;122.50;41.85;;;;;;;;;;4980777;28;20038;-73
2021/12/28 08:05:30;;;;;;;117.95;42.13;;;;;;;;;;4987011;28;20029;-73
2021/12/28 08:07:56;;;;;;;113.45;42.28;;;;;;;;;;4990790;28;20478;-72
2021/12/28 08:10:22;;;;;;;113.53;41.55;;;;;;;;;;4998830;28;20049;-73
2021/12/28 08:12:49;;;;;;;112.13;40.65;;;;;;;;;;4982488;28;20031;-73
2021/12/28 08:15:14;;;;;;;109.93;41.20;;;-1.20;99.90;;;;;;4989219;28;20486;-73
2021/12/28 08:17:40;;;;;;;106.38;39.85;;;;;;;;;;4985490;28;20085;-73
2021/12/28 08:20:06;;;;;;;106.97;39.95;;;;;;;;;;4986339;28;20097;-73
2021/12/28 08:22:33;;;;;;;110.07;41.08;;;;;;;;;;4995554;28;20097;-73
2021/12/28 08:24:59;;;;;;;108.20;40.92;;;;;;;;;;4992629;28;20034;-73
2021/12/28 08:27:25;;;;;;;109.10;39.72;;;-1.00;99.90;;;;;;4995519;28;20034;-74
2021/12/28 08:29:51;;;;;;;119.78;41.25;;;;;;;;;;4988646;28;20030;-73
2021/12/28 08:32:17;;;;;;;110.22;39.33;;;;;;;;;;4982398;28;20061;-73
2021/12/28 08:34:43;;;;;;;113.60;38.40;;;;;;;;;;4984695;28;20836;-73
2021/12/28 08:37:09;;;;;;;110.72;39.58;;;;;;;;;;4988175;28;20042;-73
2021/12/28 08:39:35;;;;;;;107.82;39.22;;;;;;;;;;4993003;28;20038;-74
2021/12/28 08:42:01;;;;;;;106.90;39.40;;;;;;;;;;4986514;28;20073;-72
2021/12/28 08:44:28;;;;;;;111.60;39.80;;;;;;;;;;4985673;28;21393;-73
2021/12/28 08:46:54;;;;;;;106.85;39.08;;;;;;;;;;4984434;28;20042;-72
2021/12/28 08:49:20;;;;;;;106.97;39.03;;;;;;;;;;4985520;28;20034;-73
2021/12/28 08:51:46;;;;;;;110.82;39.67;;;;;;;;;;4990134;28;20492;-73
2021/12/28 08:54:12;;;;;;;115.82;41.30;;;;;;;;;;4989280;28;20109;-73
2021/12/28 08:56:38;;;;;;;106.57;39.15;;;;;;;;;;4992923;28;20036;-71
2021/12/28 08:59:04;;;;;;;114.50;41.88;;;;;;;;;;4991376;28;20616;-72
2021/12/28 09:01:30;;;;;;;113.70;39.85;;;-0.50;99.90;;;;;;4985668;28;20053;-71
2021/12/28 09:03:56;;;;;;;115.60;40.00;;;;;;;;;;4985672;28;20494;-72
2021/12/28 09:06:21;;;;;;;119.80;41.03;;;;;;;;;;4989373;28;20041;-72
2021/12/28 09:08:47;;;;;;;106.10;40.10;;;;;;;;;;4983471;28;20022;-72
2021/12/28 09:11:13;;;;;;;111.15;39.95;;;;;;;;;;4987107;28;20109;-72
2021/12/28 09:13:39;;;;;;;112.53;38.83;;;;;;;;;;4984650;28;20042;-72
2021/12/28 09:16:05;;;;;;;102.90;39.78;;;;;;;;;;4983784;28;20039;-69
2021/12/28 09:18:31;;;;;;;112.93;41.20;;;;;;;;;;4982671;28;20049;-71
2021/12/28 09:20:57;;;;;;;107.43;39.35;;;;;;;;;;4987765;28;20102;-71
2021/12/28 09:23:23;;;;;;;106.97;39.50;;;;;;;;;;4983973;28;20162;-71
2021/12/28 09:25:49;;;;;;;107.75;39.65;;;;;;;;;;4985210;28;20034;-71
2021/12/28 09:28:15;;;;;;;106.45;38.30;;;;;;;;;;4981565;28;20034;-70
2021/12/28 09:30:44;;;;;;;102.43;39.05;;;;;;;;;;4982705;28;20768;-66
2021/12/28 09:33:10;;;;;;;100.55;39.10;;;;;;;;;;4985058;28;20034;-66
2021/12/28 09:35:36;;;;;;;102.90;38.63;;;;;;;;;;4988581;28;20517;-65
2021/12/28 09:38:02;;;;;;;114.10;43.35;;;;;;;;;;4983272;28;20066;-66
2021/12/28 09:40:28;;;;;;;104.57;39.22;;;;;;;;;;4978283;28;20133;-66
2021/12/28 09:42:54;;;;;;;104.35;39.08;;;;;;;;;;4984511;28;20237;-66
2021/12/28 09:45:20;;;;;;;103.00;37.40;;;;;;;;;;4979776;28;20026;-66
2021/12/28 09:47:45;;;;;;;95.05;36.92;;;-0.10;99.90;;;;;;4981688;28;20036;-66
2021/12/28 09:50:11;;;;;;;95.55;37.35;;;;;;;;;;4977254;28;20039;-66
2021/12/28 09:52:37;;;;;;;100.70;38.25;;;;;;;;;;4983514;28;20076;-66
2021/12/28 09:55:03;;;;;;;97.07;37.05;;;;;;;;;;4983016;28;20137;-66
2021/12/28 09:57:29;;;;;;;101.00;37.17;;;;;;;;;;4984645;28;20030;-66
2021/12/28 09:59:55;;;;;;;102.57;38.53;;;-0.40;99.90;;;;;;4982802;28;20044;-66
2021/12/28 10:02:21;;;;;;;92.32;36.80;;;;;;;;;;4983130;28;20046;-66
2021/12/28 10:04:47;;;;;;;93.80;35.83;;;;;;;;;;4986572;28;20036;-66
2021/12/28 10:07:13;;;;;;;90.60;35.22;;;;;;;;;;4984927;28;20030;-66
2021/12/28 10:09:39;;;;;;;97.75;36.88;;;;;;;;;;4980695;28;20582;-65
2021/12/28 10:12:05;;;;;;;97.13;36.92;;;;;;;;;;4983069;28;20038;-66
2021/12/28 10:14:31;;;;;;;95.47;35.63;;;;;;;;;;4980840;28;20435;-66
2021/12/28 10:16:57;;;;;;;91.47;36.08;;;;;;;;;;4979434;28;20038;-66
2021/12/28 10:19:23;;;;;;;95.35;35.58;;;;;;;;;;4982913;28;20038;-66
2021/12/28 10:21:49;;;;;;;91.88;34.75;;;;;;;;;;4984198;28;20062;-66
2021/12/28 10:24:14;;;;;;;98.15;37.17;;;;;;;;;;4980536;28;20030;-66
2021/12/28 10:26:40;;;;;;;90.20;34.88;;;;;;;;;;4980550;28;20030;-66
2021/12/28 10:29:06;;;;;;;97.78;34.50;;;;;;;;;;4980732;28;20717;-66
2021/12/28 10:31:32;;;;;;;91.47;34.85;;;;;;;;;;4983621;28;20114;-66
2021/12/28 10:33:58;;;;;;;91.53;35.10;;;;;;;;;;4980393;28;20894;-66
2021/12/28 10:36:24;;;;;;;93.00;33.65;;;;;;;;;;4981155;28;20049;-66
2021/12/28 10:38:50;;;;;;;84.03;33.58;;;;;;;;;;4981870;28;20077;-66
2021/12/28 10:41:16;;;;;;;81.25;32.58;;;;;;;;;;4980248;28;20038;-65
2021/12/28 10:43:45;;;;;;;83.63;33.80;;;;;;;;;;4987321;28;20034;-65
2021/12/28 10:46:11;;;;;;;83.47;32.95;;;;;;;;;;4981166;28;20036;-64
2021/12/28 10:48:38;;;;;;;83.30;31.13;;;;;;;;;;4982550;28;20034;-65
2021/12/28 10:51:04;;;;;;;84.05;32.15;;;;;;;;;;4980612;28;20038;-64
2021/12/28 10:53:37;;;;;;;86.00;32.63;;;;;;;;;;4980804;28;20453;-64
2021/12/28 10:56:03;;;;;;;87.88;33.15;;;;;;;;;;4984632;28;20112;-65
2021/12/28 10:58:29;;;;;;;84.72;30.92;;;;;;;;;;4985400;28;20137;-65
2021/12/28 11:00:55;;;;;;;97.38;33.10;;;;;;;;;;4979006;28;20042;-65
2021/12/28 11:03:23;;;;;;;78.43;32.22;;;;;;;;;;4979562;28;20034;-65
2021/12/28 11:05:49;;;;;;;90.30;32.17;;;;;;;;;;4979870;28;20397;-65
2021/12/28 11:08:15;;;;;;;78.50;30.65;;;;;;;;;;4980405;28;20065;-64
2021/12/28 11:10:41;;;;;;;86.10;31.80;;;;;;;;;;4979871;28;20042;-65
2021/12/28 11:13:07;;;;;;;70.05;29.35;;;;;;;;;;4981203;28;20066;-64
2021/12/28 11:15:37;;;;;;;82.28;32.67;;;;;;;;;;4981232;28;20137;-64
2021/12/28 11:18:03;;;;;;;82.00;31.70;;;;;;;;;;4983869;28;20038;-64
2021/12/28 11:20:30;;;;;;;76.97;30.40;;;;;;;;;;4981888;28;20038;-64
2021/12/28 11:22:56;;;;;;;80.20;32.22;;;;;;;;;;4981111;28;20547;-64
2021/12/28 11:25:22;;;;;;;77.13;29.63;;;;;;;;;;4980868;28;20040;-64
2021/12/28 11:27:48;;;;;;;71.40;28.63;;;;;;;;;;4981195;28;20038;-64
2021/12/28 11:30:14;;;;;;;93.47;33.40;;;;;;;;;;4983159;28;20062;-64
2021/12/28 11:32:40;;;;;;;77.15;30.15;;;;;;;;;;4980752;28;20145;-64
2021/12/28 11:35:06;;;;;;;76.00;29.10;;;;;;;;;;4980477;28;20096;-64
2021/12/28 11:37:32;;;;;;;77.70;29.27;;;;;;;;;;4979501;28;20066;-64
2021/12/28 11:39:59;;;;;;;75.57;30.13;;;;;;;;;;4983540;28;20514;-64
2021/12/28 11:42:25;;;;;;;75.72;28.73;;;1.30;99.90;;;;;;4979429;28;20597;-64
2021/12/28 11:44:51;;;;;;;80.13;29.52;;;;;;;;;;4980194;28;20036;-64
2021/12/28 11:47:17;;;;;;;77.03;28.77;;;;;;;;;;4981724;28;20035;-64
2021/12/28 11:49:44;;;;;;;78.38;28.90;;;;;;;;;;4981417;28;20038;-63
2021/12/28 11:52:10;;;;;;;74.18;29.25;;;;;;;;;;4980559;28;20034;-63
2021/12/28 11:54:37;;;;;;;75.82;29.85;;;;;;;;;;4980123;28;20042;-63
2021/12/28 11:57:03;;;;;;;70.75;27.83;;;;;;;;;;4983167;28;20026;-65
2021/12/28 11:59:29;;;;;;;74.50;28.85;;;;;;;;;;4982147;28;20576;-63
2021/12/28 12:01:55;;;;;;;72.15;28.05;;;;;;;;;;4979870;28;20375;-63
2021/12/28 12:04:21;;;;;;;65.30;26.23;;;;;;;;;;4983415;28;20791;-63
2021/12/28 12:06:47;;;;;;;67.57;27.33;;;;;;;;;;4988101;28;20110;-63
2021/12/28 12:09:13;;;;;;;69.72;27.58;;;;;;;;;;4985020;28;20053;-63
2021/12/28 12:11:39;;;;;;;75.97;29.40;;;;;;;;;;4986971;28;20034;-63
2021/12/28 12:14:05;;;;;;;69.95;27.45;;;;;;;;;;4983460;28;20494;-63
2021/12/28 12:16:31;;;;;;;66.45;26.95;;;;;;;;;;4985327;28;20037;-63
2021/12/28 12:18:57;;;;;;;65.18;27.85;;;;;;;;;;4984109;28;20042;-63
2021/12/28 12:21:24;;;;;;;69.70;26.92;;;;;;;;;;4983777;28;20026;-63
2021/12/28 12:23:52;;;;;;;67.38;26.10;;;;;;;;;;4984496;28;20125;-63
2021/12/28 12:26:23;;;;;;;66.40;26.05;;;;;;;;;;4983879;28;20038;-63
2021/12/28 12:28:49;;;;;;;62.83;25.80;;;;;;;;;;4981394;28;20730;-63
2021/12/28 12:31:15;;;;;;;59.95;24.85;;;;;;;;;;4968716;28;20034;-62
2021/12/28 12:33:41;;;;;;;61.70;24.30;;;;;;;;;;4984641;28;20082;-62
2021/12/28 12:36:08;;;;;;;61.63;24.80;;;;;;;;;;4984169;28;20026;-62
2021/12/28 12:38:35;;;;;;;53.45;23.88;;;;;;;;;;4981998;28;20058;-63
2021/12/28 12:41:01;;;;;;;69.10;26.52;;;;;;;;;;4970606;28;20042;-63
2021/12/28 12:43:27;;;;;;;64.82;24.35;;;;;;;;;;4983655;28;20038;-62
2021/12/28 12:45:54;;;;;;;78.28;24.98;;;;;;;;;;4983025;28;20706;-63
2021/12/28 12:48:20;;;;;;;61.95;24.52;;;;;;;;;;4984601;28;20151;-63
2021/12/28 12:50:46;;;;;;;62.83;24.05;;;;;;;;;;4985361;28;20465;-63
2021/12/28 12:53:12;;;;;;;55.75;23.35;;;;;;;;;;4983992;28;20041;-62
2021/12/28 12:55:38;;;;;;;52.25;22.15;;;;;;;;;;4985522;28;20030;-62
2021/12/28 12:58:04;;;;;;;58.42;23.77;;;;;;;;;;4984240;28;20045;-63
2021/12/28 13:00:30;;;;;;;55.42;22.52;;;;;;;;;;4983603;28;20065;-63
2021/12/28 13:02:56;;;;;;;57.25;23.90;;;;;;;;;;4987764;28;20803;-63
2021/12/28 13:05:22;;;;;;;52.08;22.35;;;;;;;;;;4983185;28;20049;-63
2021/12/28 13:07:48;;;;;;;55.17;22.30;;;;;;;;;;4986934;28;20034;-63
2021/12/28 13:10:14;;;;;;;57.35;23.02;;;;;;;;;;4982540;28;20034;-63
2021/12/28 13:12:40;;;;;;;54.47;23.00;;;;;;;;;;4985491;28;20035;-65
2021/12/28 13:15:08;;;;;;;55.47;22.77;;;;;;;;;;4983927;28;20109;-64
2021/12/28 13:17:33;;;;;;;52.22;22.45;;;;;;;;;;4982877;28;20148;-63
2021/12/28 13:20:02;;;;;;;54.00;22.30;;;;;;;;;;4983502;28;20034;-63
2021/12/28 13:22:28;;;;;;;52.75;21.73;;;;;;;;;;4983769;28;20026;-63
2021/12/28 13:24:57;;;;;;;51.22;21.42;;;;;;;;;;4985008;28;20037;-63
2021/12/28 13:27:23;;;;;;;53.90;21.42;;;;;;;;;;4983542;28;20557;-63
2021/12/28 13:29:49;;;;;;;52.25;21.83;;;;;;;;;;4987765;28;20044;-63
2021/12/28 13:32:16;;;;;;;52.42;21.88;;;;;;;;;;4990831;28;20693;-62
2021/12/28 13:34:42;;;;;;;46.67;19.48;;;;;;;;;;4983286;28;20041;-63
2021/12/28 13:37:08;;;;;;;47.40;21.20;;;;;;;;;;4983732;28;20066;-63
2021/12/28 13:39:34;;;;;;;45.53;20.60;;;;;;;;;;4983438;28;20085;-64
2021/12/28 13:41:59;;;;;;;51.05;21.10;;;1.80;99.90;;;;;;4983226;28;20038;-63
2021/12/28 13:44:25;;;;;;;52.88;20.42;;;2.10;99.90;;;;;;4985547;28;20041;-63
2021/12/28 13:46:51;;;;;;;44.75;18.73;;;;;;;;;;4983570;28;20573;-63
2021/12/28 13:49:17;;;;;;;45.53;19.55;;;;;;;;;;4985545;28;20034;-63
2021/12/28 13:51:43;;;;;;;47.58;19.42;;;;;;;;;;4982827;28;20046;-63
2021/12/28 13:54:09;;;;;;;47.25;19.77;;;;;;;;;;4983266;28;20042;-63